Time;durP1;ratioP1;P1;durP2;ratioP2;P2;SDS_P1;SDS_P2;PMS_P1;PMS_P2;Temp;Humidity;BMP_temperature;BMP_pressure;BME280_temperature;BME280_humidity;BME280_pressure;Samples;Min_cycle;Max_cycle;Signal;HPM_P1;HPM_P2
2023/11/27 00:00:05;;;;;;;11.93;6.65;;;6.00;1.00;;;;;;5053562;28;20209;-85
2023/11/27 00:02:31;;;;;;;13.13;6.68;;;6.10;99.90;;;;;;5029571;28;20652;-85
2023/11/27 00:04:57;;;;;;;13.32;6.93;;;6.00;1.00;;;;;;5047876;28;20191;-87
2023/11/27 00:07:22;;;;;;;12.50;7.10;;;6.00;99.90;;;;;;5036495;28;20266;-85
2023/11/27 00:09:48;;;;;;;11.37;5.97;;;6.00;99.90;;;;;;5015731;28;20206;-85
2023/11/27 00:12:13;;;;;;;12.47;6.67;;;6.00;99.90;;;;;;5046924;28;20193;-86
2023/11/27 00:14:39;;;;;;;13.13;5.83;;;6.00;1.00;;;;;;5044555;28;20192;-87
2023/11/27 00:17:04;;;;;;;10.40;7.00;;;6.00;1.00;;;;;;5044385;28;20277;-86
2023/11/27 00:19:30;;;;;;;14.17;6.63;;;6.00;1.00;;;;;;5031946;28;20214;-86
2023/11/27 00:21:55;;;;;;;10.20;6.17;;;6.00;1.00;;;;;;5043394;28;20190;-85
2023/11/27 00:24:21;;;;;;;12.50;7.77;;;6.00;99.90;;;;;;5021589;28;20246;-87
2023/11/27 00:26:46;;;;;;;13.10;6.40;;;6.00;99.90;;;;;;5039664;28;20536;-85
2023/11/27 00:29:12;;;;;;;13.00;6.97;;;6.00;99.90;;;;;;5045709;28;20287;-86
2023/11/27 00:31:37;;;;;;;10.27;7.10;;;6.00;99.90;;;;;;5055188;28;20186;-87
2023/11/27 00:34:03;;;;;;;14.67;8.23;;;6.00;99.90;;;;;;5054096;28;20174;-87
2023/11/27 00:36:29;;;;;;;13.57;7.40;;;6.00;99.90;;;;;;5051436;28;20185;-87
2023/11/27 00:38:54;;;;;;;15.63;7.33;;;6.00;1.00;;;;;;5045757;28;20270;-86
2023/11/27 00:41:20;;;;;;;17.17;9.00;;;6.00;99.90;;;;;;5036420;28;20234;-86
2023/11/27 00:43:45;;;;;;;10.20;7.50;;;6.00;99.90;;;;;;5050108;28;20261;-87
2023/11/27 00:46:12;;;;;;;14.67;7.77;;;5.90;1.00;;;;;;5034523;28;20777;-87
2023/11/27 00:48:38;;;;;;;13.13;8.90;;;5.90;1.00;;;;;;5023107;28;20243;-85
2023/11/27 00:51:07;;;;;;;19.33;9.80;;;5.90;1.00;;;;;;5046090;28;20214;-86
2023/11/27 00:53:33;;;;;;;11.95;8.23;;;5.90;1.00;;;;;;5052926;28;20826;-86
2023/11/27 00:55:58;;;;;;;17.90;9.53;;;5.80;1.00;;;;;;5054643;28;20187;-86
2023/11/27 00:58:24;;;;;;;13.43;8.23;;;5.80;1.00;;;;;;5040198;28;20189;-86
2023/11/27 01:00:51;;;;;;;17.40;8.03;;;5.80;1.00;;;;;;5034531;28;20668;-87
2023/11/27 01:03:17;;;;;;;18.85;9.00;;;5.80;1.00;;;;;;5039909;28;20217;-86
2023/11/27 01:05:43;;;;;;;17.20;9.30;;;5.80;1.00;;;;;;5041778;28;20206;-86
2023/11/27 01:08:08;;;;;;;19.60;8.68;;;5.80;1.00;;;;;;5054662;28;20178;-87
2023/11/27 01:10:34;;;;;;;20.37;8.80;;;5.80;1.00;;;;;;5031949;28;20214;-86
2023/11/27 01:12:59;;;;;;;14.83;8.80;;;5.80;99.90;;;;;;5043270;28;20198;-85
2023/11/27 01:15:25;;;;;;;13.20;9.10;;;5.80;99.90;;;;;;5041164;28;20237;-86
2023/11/27 01:17:50;;;;;;;10.87;8.03;;;5.80;99.90;;;;;;5045916;28;20242;-85
2023/11/27 01:20:16;;;;;;;11.67;8.40;;;5.70;99.90;;;;;;5053149;28;20700;-87
2023/11/27 01:22:41;;;;;;;15.30;9.67;;;5.70;99.90;;;;;;5042063;28;20192;-88
2023/11/27 01:25:07;;;;;;;14.87;7.57;;;5.70;99.90;;;;;;5050337;28;20257;-86
2023/11/27 01:27:34;;;;;;;12.03;7.87;;;5.70;99.90;;;;;;5045400;28;20182;-85
2023/11/27 01:30:01;;;;;;;12.20;8.85;;;5.70;99.90;;;;;;5047514;28;20455;-86
2023/11/27 01:32:27;;;;;;;17.83;8.35;;;5.70;92.10;;;;;;5049780;28;20209;-85
2023/11/27 01:34:53;;;;;;;13.23;8.93;;;5.70;71.50;;;;;;5041106;28;20184;-87
2023/11/27 01:37:19;;;;;;;13.83;8.30;;;5.70;1.00;;;;;;5038582;28;20610;-85
2023/11/27 01:39:44;;;;;;;12.10;7.93;;;5.70;1.00;;;;;;5042993;28;20469;-86
2023/11/27 01:42:10;;;;;;;14.80;9.13;;;5.70;1.00;;;;;;5051056;28;20212;-87
2023/11/27 01:44:36;;;;;;;15.20;7.00;;;5.70;1.00;;;;;;5048062;28;20182;-86
2023/11/27 01:47:03;;;;;;;13.07;8.10;;;5.70;1.00;;;;;;5031634;28;20221;-87
2023/11/27 01:49:29;;;;;;;12.05;7.95;;;5.70;99.90;;;;;;5040672;28;20325;-87
2023/11/27 01:51:56;;;;;;;12.40;7.78;;;5.70;1.00;;;;;;5044574;28;20620;-87
2023/11/27 01:54:22;;;;;;;13.68;7.05;;;5.70;1.00;;;;;;5042177;28;20175;-86
2023/11/27 01:56:50;;;;;;;8.38;6.72;;;5.70;1.00;;;;;;5050506;28;20182;-86
2023/11/27 01:59:16;;;;;;;12.40;7.65;;;5.70;99.90;;;;;;5040292;28;20209;-84
2023/11/27 02:01:43;;;;;;;12.27;6.93;;;5.70;1.00;;;;;;5040790;28;20180;-85
2023/11/27 02:04:08;;;;;;;9.10;6.53;;;5.70;1.00;;;;;;5046095;28;20558;-85
2023/11/27 02:06:34;;;;;;;9.60;6.00;;;5.70;99.90;;;;;;5041596;28;20177;-86
2023/11/27 02:09:00;;;;;;;11.00;7.13;;;5.70;99.90;;;;;;5019389;28;20238;-85
2023/11/27 02:11:26;;;;;;;9.67;6.20;;;5.70;72.80;;;;;;5040994;28;20178;-87
2023/11/27 02:13:52;;;;;;;10.70;6.55;;;5.70;99.90;;;;;;5030725;28;20567;-84
2023/11/27 02:16:18;;;;;;;10.77;6.07;;;5.70;99.90;;;;;;5050779;28;20197;-86
2023/11/27 02:18:44;;;;;;;12.73;5.70;;;5.70;99.90;;;;;;5044584;28;20206;-87
2023/11/27 02:21:11;;;;;;;11.43;6.93;;;5.70;1.00;;;;;;5028917;28;20246;-86
2023/11/27 02:23:37;;;;;;;9.93;5.70;;;5.70;1.00;;;;;;5019626;28;20438;-85
2023/11/27 02:26:03;;;;;;;11.70;5.77;;;5.80;1.00;;;;;;5023216;28;20551;-85
2023/11/27 02:28:29;;;;;;;9.82;5.95;;;5.80;99.90;;;;;;5050137;28;20804;-85
2023/11/27 02:30:55;;;;;;;10.20;5.40;;;5.90;51.50;;;;;;5049514;28;20207;-86
2023/11/27 02:33:21;;;;;;;12.83;6.10;;;5.80;99.90;;;;;;5035681;28;20198;-85
2023/11/27 02:35:50;;;;;;;11.82;5.03;;;5.90;1.00;;;;;;5051889;28;20194;-85
2023/11/27 02:38:15;;;;;;;5.65;4.47;;;5.80;1.00;;;;;;5046573;28;20232;-84
2023/11/27 02:40:41;;;;;;;8.13;5.23;;;5.90;1.00;;;;;;5049746;28;20223;-85
2023/11/27 02:43:06;;;;;;;7.63;4.90;;;5.80;1.00;;;;;;5038470;28;20546;-85
2023/11/27 02:45:33;;;;;;;8.90;5.07;;;5.80;1.00;;;;;;5020112;28;20190;-85
2023/11/27 02:47:59;;;;;;;10.05;4.72;;;5.80;15.90;;;;;;5048659;28;20190;-85
2023/11/27 02:50:24;;;;;;;9.73;5.07;;;5.80;50.40;;;;;;5044302;28;20222;-85
2023/11/27 02:52:50;;;;;;;10.23;4.97;;;5.80;1.00;;;;;;5038025;28;20195;-85
2023/11/27 02:55:16;;;;;;;7.23;5.00;;;5.80;1.00;;;;;;5043241;28;20178;-85
2023/11/27 02:57:42;;;;;;;8.20;4.72;;;5.80;5.00;;;;;;5033315;28;20175;-86
2023/11/27 03:00:12;;;;;;;8.63;5.20;;;5.80;99.90;;;;;;5046624;28;20261;-85
2023/11/27 03:02:38;;;;;;;11.50;4.70;;;5.80;53.90;;;;;;5033396;28;20753;-85
2023/11/27 03:05:07;;;;;;;10.00;6.03;;;5.70;99.90;;;;;;5049651;28;20187;-85
2023/11/27 03:07:36;;;;;;;12.57;5.97;;;5.70;99.90;;;;;;5032929;28;20437;-85
2023/11/27 03:10:02;;;;;;;8.95;5.13;;;5.60;99.90;;;;;;5044856;28;20611;-85
2023/11/27 03:12:28;;;;;;;7.72;5.40;;;5.60;1.00;;;;;;5041146;28;20258;-87
2023/11/27 03:14:53;;;;;;;12.63;5.27;;;5.60;93.80;;;;;;5042557;28;20231;-85
2023/11/27 03:17:21;;;;;;;10.40;5.57;;;5.50;99.90;;;;;;5017820;28;20652;-85
2023/11/27 03:19:46;;;;;;;8.15;5.15;;;5.50;99.90;;;;;;5011747;28;20222;-84
2023/11/27 03:22:12;;;;;;;11.20;5.07;;;5.50;1.00;;;;;;5026212;28;20183;-85
2023/11/27 03:24:38;;;;;;;10.40;5.00;;;5.50;1.00;;;;;;5048411;28;20437;-86
2023/11/27 03:27:04;;;;;;;7.50;5.03;;;5.50;19.30;;;;;;5043354;28;20285;-86
2023/11/27 03:29:29;;;;;;;6.80;4.80;;;5.40;99.90;;;;;;5035772;28;20457;-85
2023/11/27 03:31:55;;;;;;;14.07;5.80;;;5.40;99.90;;;;;;5037049;28;20192;-87
2023/11/27 03:34:20;;;;;;;14.00;7.00;;;5.40;99.90;;;;;;5058634;28;20209;-85
2023/11/27 03:36:46;;;;;;;25.23;6.73;;;5.30;99.90;;;;;;5036265;28;20187;-86
2023/11/27 03:39:12;;;;;;;14.57;6.40;;;5.30;1.00;;;;;;5033547;28;20563;-85
2023/11/27 03:41:37;;;;;;;16.23;5.70;;;5.30;1.00;;;;;;5032240;28;20687;-87
2023/11/27 03:44:03;;;;;;;13.53;6.10;;;5.30;1.00;;;;;;5022854;28;20441;-86
2023/11/27 03:46:28;;;;;;;11.57;7.37;;;5.20;1.00;;;;;;5045537;28;20191;-86
2023/11/27 03:48:54;;;;;;;9.60;5.40;;;5.20;1.00;;;;;;5039615;28;20191;-85
2023/11/27 03:51:19;;;;;;;12.53;7.03;;;5.10;1.00;;;;;;5019529;28;20218;-85
2023/11/27 03:53:45;;;;;;;13.60;7.50;;;5.10;1.00;;;;;;5025673;28;20254;-85
2023/11/27 03:56:10;;;;;;;11.47;6.90;;;5.10;1.00;;;;;;5047892;28;20186;-86
2023/11/27 03:58:36;;;;;;;12.83;7.20;;;5.10;1.00;;;;;;5038337;28;20207;-85
2023/11/27 04:01:05;;;;;;;12.70;7.30;;;5.10;1.00;;;;;;5046676;28;20215;-85
2023/11/27 04:03:31;;;;;;;14.27;7.10;;;5.10;1.00;;;;;;5047948;28;20189;-87
2023/11/27 04:05:56;;;;;;;10.13;6.80;;;5.10;1.00;;;;;;5047798;28;20190;-87
2023/11/27 04:08:22;;;;;;;7.27;5.90;;;5.10;1.00;;;;;;5045707;28;20183;-86
2023/11/27 04:10:47;;;;;;;16.30;7.57;;;5.10;1.00;;;;;;5022585;28;20206;-87
2023/11/27 04:13:13;;;;;;;14.77;7.13;;;5.10;1.00;;;;;;5017335;28;20187;-85
2023/11/27 04:15:38;;;;;;;14.83;8.13;;;5.10;1.00;;;;;;5031987;28;20180;-87
2023/11/27 04:18:04;;;;;;;9.70;6.33;;;5.10;1.00;;;;;;5036129;28;20182;-87
2023/11/27 04:20:29;;;;;;;10.00;5.90;;;5.00;1.00;;;;;;5047209;28;20244;-86
2023/11/27 04:22:56;;;;;;;10.93;7.27;;;5.00;1.00;;;;;;5033233;28;20183;-85
2023/11/27 04:25:21;;;;;;;14.60;6.45;;;5.00;1.00;;;;;;5011827;28;20550;-86
2023/11/27 04:27:48;;;;;;;12.50;6.23;;;5.00;1.00;;;;;;5040210;28;20251;-87
2023/11/27 04:30:14;;;;;;;11.20;5.80;;;5.00;1.00;;;;;;5041198;28;20675;-86
2023/11/27 04:32:39;;;;;;;16.50;6.10;;;4.90;1.00;;;;;;5042915;28;20274;-87
2023/11/27 04:35:05;;;;;;;15.67;7.53;;;4.90;1.00;;;;;;5043469;28;20809;-87
2023/11/27 04:37:31;;;;;;;17.20;8.07;;;4.90;3.00;;;;;;5037531;28;20190;-85
2023/11/27 04:39:56;;;;;;;11.33;6.47;;;4.90;9.30;;;;;;5045329;28;20560;-86
2023/11/27 04:42:23;;;;;;;18.73;6.07;;;4.90;13.60;;;;;;5043186;28;20739;-86
2023/11/27 04:44:49;;;;;;;20.50;7.13;;;4.90;21.20;;;;;;5031318;28;20209;-86
2023/11/27 04:47:16;;;;;;;21.13;7.83;;;4.90;28.20;;;;;;5042879;28;20178;-84
2023/11/27 04:49:42;;;;;;;36.97;15.65;;;4.80;34.90;;;;;;5033239;28;20472;-84
2023/11/27 04:52:07;;;;;;;11.83;5.77;;;4.80;42.60;;;;;;5054137;28;20815;-86
2023/11/27 04:54:33;;;;;;;13.70;6.73;;;4.80;48.80;;;;;;5045500;28;20190;-86
2023/11/27 04:56:58;;;;;;;9.63;5.50;;;4.80;52.20;;;;;;5040661;28;20194;-86
2023/11/27 04:59:24;;;;;;;12.30;6.60;;;4.80;55.70;;;;;;5027470;28;20202;-85
2023/11/27 05:01:52;;;;;;;39.90;17.30;;;4.80;61.30;;;;;;5054997;28;20198;-85
2023/11/27 05:04:18;;;;;;;11.25;6.70;;;4.80;66.20;;;;;;5052107;28;20178;-84
2023/11/27 05:06:45;;;;;;;10.68;7.45;;;4.80;69.80;;;;;;5045162;28;20199;-85
2023/11/27 05:09:12;;;;;;;25.63;10.68;;;4.80;76.30;;;;;;5041969;28;20224;-84
2023/11/27 05:11:38;;;;;;;17.75;7.82;;;4.80;80.50;;;;;;5013852;28;20564;-85
2023/11/27 05:14:04;;;;;;;10.50;6.22;;;4.80;83.90;;;;;;5031511;28;20727;-83
2023/11/27 05:16:30;;;;;;;12.10;7.63;;;4.80;86.50;;;;;;5020393;28;20182;-85
2023/11/27 05:18:55;;;;;;;12.50;6.57;;;4.80;89.50;;;;;;5022291;28;21602;-85
2023/11/27 05:21:21;;;;;;;21.13;5.90;;;4.80;91.60;;;;;;5034684;28;20218;-85
2023/11/27 05:23:47;;;;;;;13.93;5.83;;;4.80;92.90;;;;;;5042182;28;20179;-85
2023/11/27 05:26:13;;;;;;;15.30;6.80;;;4.80;94.20;;;;;;5050143;28;20751;-85
2023/11/27 05:28:40;;;;;;;15.68;6.03;;;4.80;95.60;;;;;;5047066;28;20178;-84
2023/11/27 05:31:06;;;;;;;14.98;7.38;;;4.80;96.30;;;;;;5044744;28;20171;-85
2023/11/27 05:33:35;;;;;;;38.00;16.70;;;4.80;97.40;;;;;;5039582;28;20657;-85
2023/11/27 05:36:02;;;;;;;22.63;11.25;;;4.80;99.00;;;;;;5054573;28;20238;-85
2023/11/27 05:38:28;;;;;;;23.85;10.65;;;4.80;99.10;;;;;;5047800;28;20182;-84
2023/11/27 05:40:56;;;;;;;10.63;6.10;;;4.80;99.90;;;;;;5031611;28;20209;-85
2023/11/27 05:43:22;;;;;;;9.00;6.15;;;4.80;99.90;;;;;;5023533;28;20199;-85
2023/11/27 05:45:48;;;;;;;10.25;4.43;;;4.80;99.90;;;;;;5042048;28;20185;-88
2023/11/27 05:48:13;;;;;;;9.60;4.87;;;4.80;99.90;;;;;;5043987;28;20640;-86
2023/11/27 05:50:41;;;;;;;4.67;3.63;;;4.80;99.90;;;;;;5041768;28;20220;-86
2023/11/27 05:53:10;;;;;;;7.30;5.15;;;4.80;99.90;;;;;;5037746;28;20190;-86
2023/11/27 05:55:36;;;;;;;8.07;5.18;;;4.80;99.90;;;;;;5036405;28;20559;-86
2023/11/27 05:58:02;;;;;;;7.97;5.68;;;4.90;99.90;;;;;;5034566;28;20183;-87
2023/11/27 06:00:27;;;;;;;11.00;7.17;;;4.90;99.90;;;;;;5045074;28;20214;-87
2023/11/27 06:02:53;;;;;;;12.63;6.10;;;4.90;99.90;;;;;;5028240;28;20182;-87
2023/11/27 06:05:19;;;;;;;6.87;5.40;;;4.90;99.90;;;;;;5042807;28;20210;-87
2023/11/27 06:07:47;;;;;;;10.27;5.77;;;4.90;99.90;;;;;;5034223;28;20197;-86
2023/11/27 06:10:13;;;;;;;9.82;6.15;;;4.90;99.90;;;;;;5033949;28;20454;-87
2023/11/27 06:12:39;;;;;;;14.30;6.93;;;4.90;99.90;;;;;;5029742;28;20192;-87
2023/11/27 06:15:05;;;;;;;15.38;6.72;;;4.90;99.90;;;;;;5025562;28;20192;-86
2023/11/27 06:17:30;;;;;;;11.95;5.60;;;4.80;99.90;;;;;;5033574;28;20191;-87
2023/11/27 06:19:56;;;;;;;20.47;6.33;;;4.80;99.90;;;;;;5035056;28;20240;-87
2023/11/27 06:22:23;;;;;;;10.43;5.60;;;4.80;99.90;;;;;;5022139;28;20313;-87
2023/11/27 06:24:48;;;;;;;11.27;5.22;;;4.80;99.90;;;;;;5032437;28;20575;-87
2023/11/27 06:27:14;;;;;;;9.00;5.43;;;4.90;99.90;;;;;;5022486;28;20190;-87
2023/11/27 06:29:39;;;;;;;23.30;10.27;;;4.90;99.90;;;;;;5032375;28;20209;-87
2023/11/27 06:32:05;;;;;;;23.30;8.20;;;4.80;99.90;;;;;;5048011;28;20273;-87
2023/11/27 06:34:31;;;;;;;14.70;8.00;;;4.80;99.90;;;;;;5022713;28;20200;-87
2023/11/27 06:36:56;;;;;;;19.07;8.23;;;4.80;99.90;;;;;;5026565;28;20189;-87
2023/11/27 06:39:22;;;;;;;12.93;8.67;;;4.80;99.90;;;;;;5036971;28;20211;-87
2023/11/27 06:41:47;;;;;;;15.63;8.10;;;4.80;99.90;;;;;;5033485;28;20195;-87
2023/11/27 06:44:17;;;;;;;14.63;8.67;;;4.80;99.90;;;;;;5041613;28;20613;-88
2023/11/27 06:46:44;;;;;;;16.70;9.02;;;4.80;99.90;;;;;;5016723;28;20190;-88
2023/11/27 06:49:09;;;;;;;8.05;5.30;;;4.80;99.90;;;;;;5028874;28;20206;-88
2023/11/27 06:51:35;;;;;;;8.00;5.90;;;4.80;99.90;;;;;;5020177;28;20198;-88
2023/11/27 06:54:02;;;;;;;9.95;5.00;;;4.80;99.90;;;;;;5015203;28;20190;-88
2023/11/27 06:56:33;;;;;;;9.73;5.80;;;4.80;99.90;;;;;;5035015;28;20207;-88
2023/11/27 06:59:00;;;;;;;6.05;5.07;;;4.80;99.90;;;;;;5039466;28;20209;-88
2023/11/27 07:01:28;;;;;;;6.38;4.88;;;4.80;99.90;;;;;;5035749;28;20280;-88
2023/11/27 07:03:55;;;;;;;9.07;4.72;;;4.80;99.90;;;;;;5017642;28;20175;-86
2023/11/27 07:06:20;;;;;;;7.05;5.10;;;4.80;99.90;;;;;;5022158;28;20203;-86
2023/11/27 07:08:46;;;;;;;9.67;4.30;;;4.90;99.90;;;;;;5017927;28;20193;-88
2023/11/27 07:11:11;;;;;;;7.00;6.30;;;4.80;99.90;;;;;;5030213;28;20190;-86
2023/11/27 07:13:37;;;;;;;8.23;4.87;;;4.80;99.90;;;;;;5034614;28;20182;-86
2023/11/27 07:16:03;;;;;;;5.67;5.10;;;4.80;99.90;;;;;;5044192;28;20571;-86
2023/11/27 07:18:31;;;;;;;13.83;6.47;;;4.80;99.90;;;;;;5038355;28;20185;-85
2023/11/27 07:21:00;;;;;;;6.55;4.78;;;4.80;99.90;;;;;;5035811;28;20214;-86
2023/11/27 07:23:29;;;;;;;8.60;5.63;;;4.80;99.90;;;;;;5010700;28;20545;-86
2023/11/27 07:25:56;;;;;;;14.15;5.55;;;4.90;99.90;;;;;;5018050;28;20213;-86
2023/11/27 07:28:21;;;;;;;9.50;5.90;;;4.90;99.90;;;;;;5024282;28;20197;-87
2023/11/27 07:30:47;;;;;;;6.90;4.90;;;4.90;99.90;;;;;;5034434;28;20594;-88
2023/11/27 07:33:12;;;;;;;13.87;6.93;;;4.80;99.90;;;;;;5015958;28;20187;-86
2023/11/27 07:35:39;;;;;;;11.33;6.10;;;4.80;99.90;;;;;;5011286;28;20182;-86
2023/11/27 07:38:05;;;;;;;9.23;5.20;;;4.80;99.90;;;;;;5005930;28;20217;-86
2023/11/27 07:40:30;;;;;;;6.57;4.45;;;4.80;99.90;;;;;;5031874;28;20304;-86
2023/11/27 07:42:56;;;;;;;6.20;4.93;;;4.80;99.90;;;;;;5030159;28;20214;-87
2023/11/27 07:45:22;;;;;;;8.67;4.27;;;4.80;99.90;;;;;;5037265;28;20178;-85
2023/11/27 07:47:47;;;;;;;7.23;4.73;;;4.80;99.90;;;;;;5031156;28;20262;-86
2023/11/27 07:50:13;;;;;;;7.97;4.20;;;4.90;99.90;;;;;;5010637;28;20243;-85
2023/11/27 07:52:39;;;;;;;12.40;3.80;;;4.90;99.90;;;;;;5035275;28;20183;-85
2023/11/27 07:55:05;;;;;;;10.23;4.30;;;4.80;99.90;;;;;;5023003;28;20179;-85
2023/11/27 07:57:34;;;;;;;5.65;4.47;;;4.90;99.90;;;;;;5035690;28;20422;-84
2023/11/27 08:00:01;;;;;;;8.75;4.85;;;4.90;99.90;;;;;;5016228;28;20594;-86
2023/11/27 08:02:27;;;;;;;5.20;4.03;;;4.90;99.90;;;;;;5024892;28;20671;-87
2023/11/27 08:04:52;;;;;;;5.00;3.63;;;5.00;99.90;;;;;;5026335;28;20187;-85
2023/11/27 08:07:18;;;;;;;8.53;4.10;;;5.00;99.90;;;;;;5023454;28;20191;-85
2023/11/27 08:09:48;;;;;;;4.10;3.60;;;5.00;99.90;;;;;;5020057;28;20255;-84
2023/11/27 08:12:18;;;;;;;8.88;3.80;;;5.10;99.90;;;;;;5025107;28;20182;-85
2023/11/27 08:14:44;;;;;;;3.97;3.50;;;5.10;99.90;;;;;;5024431;28;20186;-85
2023/11/27 08:17:10;;;;;;;11.02;3.45;;;5.10;99.90;;;;;;5021261;28;20225;-85
2023/11/27 08:19:36;;;;;;;3.73;2.43;;;5.10;99.90;;;;;;5040209;28;20202;-87
2023/11/27 08:22:03;;;;;;;35.10;5.20;;;5.10;99.90;;;;;;5040989;28;20197;-84
2023/11/27 08:24:30;;;;;;;3.15;2.00;;;5.20;99.90;;;;;;5037805;28;20175;-85
2023/11/27 08:27:04;;;;;;;2.10;1.60;;;5.20;99.90;;;;;;5013687;28;20306;-85
2023/11/27 08:29:48;;;;;;;1.80;1.65;;;5.20;99.90;;;;;;5020540;28;20199;-85
2023/11/27 08:32:43;;;;;;;6.40;2.33;;;5.20;99.90;;;;;;5024709;28;20191;-84
2023/11/27 08:35:43;;;;;;;3.75;2.17;;;5.20;99.90;;;;;;5000654;28;20269;-86
2023/11/27 08:38:11;;;;;;;5.00;2.00;;;5.20;99.90;;;;;;5008092;28;20186;-88
2023/11/27 08:41:07;;;;;;;3.53;2.67;;;5.20;99.90;;;;;;5019688;28;20221;-84
2023/11/27 08:47:16;;;;;;;3.38;2.40;;;5.20;99.90;;;;;;5021089;28;20202;-85
2023/11/27 08:50:36;;;;;;;3.78;1.88;;;5.30;99.90;;;;;;4948695;28;20256;-84
2023/11/27 08:54:32;;;;;;;3.95;2.47;;;5.30;99.90;;;;;;4985064;28;20359;-86
2023/11/27 08:56:58;;;;;;;3.10;2.03;;;5.40;99.90;;;;;;4886504;29;20580;-86
2023/11/27 08:59:25;;;;;;;9.63;2.65;;;5.40;99.90;;;;;;4889907;29;20238;-86
2023/11/27 09:01:51;;;;;;;2.58;2.00;;;5.40;99.90;;;;;;4965206;28;20209;-86
2023/11/27 09:04:18;;;;;;;3.45;2.40;;;5.40;99.90;;;;;;4994480;28;20186;-86
2023/11/27 09:06:44;;;;;;;5.95;2.58;;;5.40;99.90;;;;;;5021595;28;20216;-86
2023/11/27 09:09:11;;;;;;;6.22;2.50;;;5.40;99.90;;;;;;5048539;28;20288;-87
2023/11/27 09:11:37;;;;;;;4.28;2.50;;;5.40;99.90;;;;;;5022518;28;20280;-85
2023/11/27 09:14:03;;;;;;;4.97;3.30;;;5.40;99.90;;;;;;5011703;28;20180;-86
2023/11/27 09:16:29;;;;;;;11.63;3.00;;;5.40;99.90;;;;;;5021378;28;20274;-86
2023/11/27 09:18:55;;;;;;;2.70;2.50;;;5.40;99.90;;;;;;5020449;28;20668;-86
2023/11/27 09:21:20;;;;;;;4.47;2.87;;;5.40;99.90;;;;;;5020668;28;20245;-86
2023/11/27 09:23:46;;;;;;;7.03;2.60;;;5.40;99.90;;;;;;5022247;28;20262;-85
2023/11/27 09:26:13;;;;;;;3.67;2.70;;;5.40;99.90;;;;;;5020611;28;20233;-86
2023/11/27 09:28:38;;;;;;;5.25;3.10;;;5.40;99.90;;;;;;5022671;28;20193;-84
2023/11/27 09:31:04;;;;;;;3.77;2.40;;;5.40;99.90;;;;;;5014614;28;20739;-86
2023/11/27 09:33:31;;;;;;;5.00;2.97;;;5.30;99.90;;;;;;5036397;28;20182;-86
2023/11/27 09:35:57;;;;;;;4.30;3.90;;;5.40;99.90;;;;;;5020424;28;20191;-86
2023/11/27 09:38:24;;;;;;;6.50;2.78;;;5.30;99.90;;;;;;5020434;28;20179;-87
2023/11/27 09:40:51;;;;;;;3.53;2.63;;;5.30;99.90;;;;;;5021341;28;20629;-86
2023/11/27 09:43:17;;;;;;;2.80;2.50;;;5.40;99.90;;;;;;5036778;28;20186;-86
2023/11/27 09:45:43;;;;;;;5.28;2.90;;;5.40;99.90;;;;;;5047595;28;20192;-86
2023/11/27 09:48:10;;;;;;;2.97;2.53;;;5.40;99.90;;;;;;5015406;28;20261;-85
2023/11/27 09:50:36;;;;;;;6.45;2.90;;;5.40;99.90;;;;;;5015675;28;20214;-86
2023/11/27 09:53:07;;;;;;;6.23;3.40;;;5.40;99.90;;;;;;5038326;28;20723;-85
2023/11/27 09:55:39;;;;;;;4.63;2.80;;;5.40;99.90;;;;;;5034763;28;20429;-86
2023/11/27 09:58:06;;;;;;;5.40;2.50;;;5.40;99.90;;;;;;5020284;28;20186;-85
2023/11/27 10:00:32;;;;;;;4.75;2.40;;;5.40;99.90;;;;;;5037164;28;20230;-85
2023/11/27 10:02:58;;;;;;;5.35;2.60;;;5.40;99.90;;;;;;5038400;28;20262;-86
2023/11/27 10:05:24;;;;;;;3.75;2.42;;;5.50;99.90;;;;;;5037985;28;20178;-85
2023/11/27 10:07:51;;;;;;;5.75;2.25;;;5.50;99.90;;;;;;5037968;28;20200;-85
2023/11/27 10:10:26;;;;;;;4.18;2.40;;;5.50;99.90;;;;;;5037489;28;20215;-85
2023/11/27 10:12:59;;;;;;;8.57;2.75;;;5.50;99.90;;;;;;5032244;28;20214;-84
2023/11/27 10:15:28;;;;;;;4.05;2.75;;;5.50;99.90;;;;;;5035251;28;20552;-85
2023/11/27 10:17:56;;;;;;;3.92;2.75;;;5.50;99.90;;;;;;5019746;28;20236;-86
2023/11/27 10:20:22;;;;;;;4.85;2.63;;;5.50;99.90;;;;;;5036386;28;20241;-85
2023/11/27 10:22:48;;;;;;;3.88;2.75;;;5.50;99.90;;;;;;5032755;28;20182;-85
2023/11/27 10:25:14;;;;;;;2.93;2.27;;;5.60;99.90;;;;;;5033362;28;20178;-85
2023/11/27 10:27:58;;;;;;;4.67;2.40;;;5.50;99.90;;;;;;5035680;28;20175;-86
2023/11/27 10:30:25;;;;;;;4.18;1.90;;;5.50;99.90;;;;;;5031894;28;20452;-85
2023/11/27 10:32:54;;;;;;;9.30;2.72;;;5.50;99.90;;;;;;5028939;28;20194;-85
2023/11/27 10:35:25;;;;;;;5.00;2.72;;;5.50;99.90;;;;;;5034704;28;20183;-85
2023/11/27 10:37:54;;;;;;;3.45;2.40;;;5.50;99.90;;;;;;5029930;28;20190;-86
2023/11/27 10:40:21;;;;;;;4.15;1.98;;;5.50;99.90;;;;;;5018951;28;20296;-85
2023/11/27 10:42:48;;;;;;;3.25;2.20;;;5.50;99.90;;;;;;5019230;28;20187;-86
2023/11/27 10:45:19;;;;;;;2.97;2.20;;;5.50;99.90;;;;;;5035173;28;20179;-83
2023/11/27 10:47:47;;;;;;;4.50;2.20;;;5.50;99.90;;;;;;5034403;28;20188;-86
2023/11/27 10:50:15;;;;;;;2.85;2.30;;;5.50;99.90;;;;;;5026715;28;20226;-85
2023/11/27 10:52:49;;;;;;;3.40;2.00;;;5.50;99.90;;;;;;5035294;28;20180;-84
2023/11/27 10:55:19;;;;;;;2.78;1.92;;;5.50;99.90;;;;;;5016237;28;20182;-83
2023/11/27 10:57:47;;;;;;;2.13;1.88;;;5.60;99.90;;;;;;5018760;28;20624;-84
2023/11/27 11:00:29;;;;;;;3.05;1.90;;;5.50;99.90;;;;;;5038489;28;20233;-86
2023/11/27 11:03:08;;;;;;;1.75;1.40;;;5.50;99.90;;;;;;5038665;28;20179;-84
2023/11/27 11:05:45;;;;;;;2.58;1.98;;;5.50;99.90;;;;;;5021605;28;20229;-86
2023/11/27 11:08:12;;;;;;;2.30;1.70;;;5.40;99.90;;;;;;5038510;28;20186;-85
2023/11/27 11:10:40;;;;;;;4.78;2.00;;;5.50;99.10;;;;;;5037573;28;20970;-85
2023/11/27 11:13:12;;;;;;;3.13;2.53;;;5.40;98.70;;;;;;5028782;28;20210;-86
2023/11/27 11:15:53;;;;;;;2.50;2.13;;;5.50;99.10;;;;;;5029562;28;20179;-86
2023/11/27 11:18:48;;;;;;;2.35;2.15;;;5.50;98.80;;;;;;5035727;28;20230;-86
2023/11/27 11:21:42;;;;;;;2.10;1.90;;;5.60;99.30;;;;;;5035170;28;20216;-86
2023/11/27 11:24:29;;;;;;;2.30;1.95;;;5.60;97.30;;;;;;5010476;28;20202;-86
2023/11/27 11:27:17;;;;;;;6.32;2.50;;;5.70;97.00;;;;;;4993613;28;20247;-87
2023/11/27 11:29:46;;;;;;;3.97;1.60;;;5.70;94.50;;;;;;5010005;28;20274;-86
2023/11/27 11:32:14;;;;;;;4.60;2.42;;;5.70;94.40;;;;;;5033967;28;20190;-85
2023/11/27 11:34:49;;;;;;;2.63;1.83;;;5.70;93.40;;;;;;5025290;28;20213;-85
2023/11/27 11:37:17;;;;;;;3.25;2.25;;;5.70;92.10;;;;;;5032435;28;20181;-86
2023/11/27 11:39:47;;;;;;;5.25;2.10;;;5.80;91.60;;;;;;5032912;28;20202;-86
2023/11/27 11:42:17;;;;;;;5.45;2.40;;;5.80;90.70;;;;;;5033745;28;20198;-86
2023/11/27 11:45:03;;;;;;;5.18;2.70;;;5.70;87.60;;;;;;5033141;28;20671;-87
2023/11/27 11:47:33;;;;;;;3.72;2.40;;;5.70;87.30;;;;;;5026927;28;20237;-86
2023/11/27 11:50:24;;;;;;;5.75;2.63;;;5.70;87.30;;;;;;5030388;28;20218;-87
2023/11/27 11:52:51;;;;;;;2.42;2.22;;;5.70;82.60;;;;;;5022952;28;20193;-86
2023/11/27 11:55:47;;;;;;;3.85;2.00;;;5.70;86.80;;;;;;5027826;28;20188;-86
2023/11/27 11:58:19;;;;;;;3.22;2.15;;;5.70;89.70;;;;;;5010962;28;20199;-86
2023/11/27 12:00:46;;;;;;;2.50;2.30;;;5.70;88.30;;;;;;5031700;28;20214;-87
2023/11/27 12:03:17;;;;;;;7.07;2.42;;;5.70;90.80;;;;;;5042648;28;20182;-87
2023/11/27 12:05:49;;;;;;;2.65;2.45;;;5.70;90.40;;;;;;5024178;28;20179;-88
2023/11/27 12:08:17;;;;;;;3.25;2.17;;;5.70;90.50;;;;;;5038060;28;20261;-86
2023/11/27 12:10:43;;;;;;;6.20;2.20;;;5.70;91.60;;;;;;5028215;28;20202;-88
2023/11/27 12:13:12;;;;;;;2.67;1.88;;;5.70;92.30;;;;;;5033185;28;20182;-86
2023/11/27 12:15:37;;;;;;;3.88;2.75;;;5.60;90.60;;;;;;5038438;28;20183;-89
2023/11/27 12:18:08;;;;;;;3.00;2.10;;;5.60;90.50;;;;;;5036939;28;20274;-87
2023/11/27 12:20:37;;;;;;;2.88;2.03;;;5.60;91.00;;;;;;5009051;28;20264;-87
2023/11/27 12:23:04;;;;;;;4.25;2.35;;;5.60;91.20;;;;;;5008541;28;20187;-87
2023/11/27 12:25:30;;;;;;;7.25;2.60;;;5.60;91.90;;;;;;5010281;28;20187;-87
2023/11/27 12:27:56;;;;;;;8.87;1.93;;;5.60;90.60;;;;;;5008242;28;20197;-86
2023/11/27 12:30:21;;;;;;;6.27;1.97;;;5.60;94.10;;;;;;5015580;28;20205;-88
2023/11/27 12:32:51;;;;;;;2.17;1.80;;;5.60;95.50;;;;;;5008741;28;20453;-87
2023/11/27 12:35:21;;;;;;;2.40;1.90;;;5.60;97.30;;;;;;5008100;28;20195;-86
2023/11/27 12:37:48;;;;;;;8.55;2.20;;;5.50;98.20;;;;;;5008295;28;20187;-86
2023/11/27 12:40:18;;;;;;;2.45;1.90;;;5.60;99.90;;;;;;5044979;28;20205;-84
2023/11/27 12:42:45;;;;;;;3.15;1.95;;;5.60;99.90;;;;;;5032531;28;20213;-86
2023/11/27 12:45:12;;;;;;;7.55;2.90;;;5.60;99.90;;;;;;5029756;28;20183;-86
2023/11/27 12:47:39;;;;;;;4.28;1.48;;;5.50;99.90;;;;;;5011508;28;20209;-84
2023/11/27 12:50:22;;;;;;;2.03;1.70;;;5.60;99.90;;;;;;5022422;28;20279;-85
2023/11/27 12:52:48;;;;;;;6.10;1.90;;;5.60;99.90;;;;;;5037532;28;20795;-86
2023/11/27 12:55:14;;;;;;;3.63;2.10;;;5.50;99.90;;;;;;5017460;28;20205;-86
2023/11/27 12:57:40;;;;;;;2.90;1.93;;;5.50;99.90;;;;;;5018334;28;20544;-84
2023/11/27 13:00:13;;;;;;;2.40;1.87;;;5.50;99.90;;;;;;5041914;28;20225;-88
2023/11/27 13:02:43;;;;;;;11.40;2.40;;;5.50;99.90;;;;;;5021436;28;20190;-86